EST,Max TemperatureF,Mean TemperatureF,Min TemperatureF,Max Dew PointF,MeanDew PointF,Min DewpointF,Max Humidity, Mean Humidity, Min Humidity, Max Sea Level PressureIn, Mean Sea Level PressureIn, Min Sea Level PressureIn, Max VisibilityMiles, Mean VisibilityMiles, Min VisibilityMiles, Max Wind SpeedMPH, Mean Wind SpeedMPH, Max Gust SpeedMPH,PrecipitationIn, CloudCover, Events, WindDirDegrees
2012-1-1,55,42,29,44,33,19,92,65,37,30.16,30.03,29.86,10,10,8,28,6,40,0.01,2,,284
2012-1-2,44,34,24,22,13,6,58,44,29,30.08,30.02,29.96,10,9,1,30,15,41,0.01,4,Snow,299
2012-1-3,28,25,21,13,7,4,59,48,37,30.32,30.19,30.08,10,10,6,31,15,39,T,6,Snow,303
2012-1-4,42,31,20,25,10,5,57,40,23,30.34,30.20,30.02,10,10,10,20,7,29,0.00,1,,237
2012-1-5,52,45,37,24,21,19,54,42,30,30.09,30.04,29.99,10,10,10,28,11,37,0.00,1,,274
2012-1-6,65,53,40,25,22,20,46,33,20,30.06,29.99,29.93,10,10,10,20,12,26,0.00,0,,257
2012-1-7,65,55,45,44,37,21,71,51,30,30.10,29.96,29.90,10,10,10,24,9,29,0.00,3,,269
2012-1-8,56,44,31,28,25,21,72,49,26,30.29,30.23,30.11,10,10,10,13,4,15,0.00,3,,1
2012-1-9,44,40,35,34,31,26,92,73,53,30.30,30.19,30.07,10,6,2,10,4,14,0.11,8,Rain,133
2012-1-10,56,43,29,34,29,25,100,65,30,30.13,30.07,30.03,10,7,0,17,3,21,0.00,1,Fog,290
2012-1-11,42,37,32,40,37,28,93,82,70,30.02,29.82,29.56,10,5,2,13,2,17,0.68,8,Rain,32
2012-1-12,58,49,39,45,41,33,92,75,57,29.60,29.53,29.44,10,10,6,25,10,32,0.08,6,Rain,237
2012-1-13,40,34,28,25,15,11,73,58,43,30.04,29.85,29.54,10,10,10,31,15,43,T,6,,273
2012-1-14,41,35,28,25,16,11,78,53,28,30.17,30.11,30.06,10,10,9,26,10,35,T,3,Snow,271
2012-1-15,39,32,25,24,18,12,85,60,35,30.56,30.39,30.14,10,10,10,18,5,24,T,3,,333
2012-1-16,47,34,20,31,22,15,77,60,42,30.57,30.44,30.24,10,10,10,13,3,16,0.01,3,Rain,150
2012-1-17,59,51,43,50,39,28,62,56,49,30.21,29.99,29.85,10,10,10,13,5,16,0.05,7,Rain,136
2012-1-18,56,42,28,37,19,13,66,53,40,30.18,30.08,29.86,10,10,10,30,13,39,0.00,2,,316
2012-1-19,43,32,20,22,17,13,77,56,34,30.22,30.12,30.02,10,10,10,14,4,16,0.00,1,,149
2012-1-20,47,41,34,32,25,20,96,68,40,30.19,30.13,30.03,10,9,4,15,4,20,0.19,5,Rain,180
2012-1-21,50,42,33,43,35,30,100,90,80,30.23,30.00,29.89,10,6,0,13,4,15,0.29,8,Fog-Rain,126
2012-1-22,37,35,32,34,31,28,100,85,70,30.42,30.33,30.24,10,5,0,13,5,15,T,8,Fog,138
2012-1-23,43,39,34,41,36,33,100,95,89,30.32,30.11,29.96,10,3,0,12,4,14,0.15,8,Fog-Rain,124
2012-1-24,62,48,34,41,34,28,100,65,29,30.25,30.12,30.01,10,7,0,15,5,22,0.00,0,Fog,291
2012-1-25,57,46,34,34,30,28,82,59,35,30.35,30.27,30.21,10,10,10,15,4,20,0.00,1,,89
2012-1-26,64,51,38,56,45,33,87,69,51,30.18,29.94,29.67,10,10,6,16,6,22,0.02,5,Rain,141
2012-1-27,64,52,39,58,41,27,62,55,47,30.04,29.75,29.53,10,10,7,31,15,39,0.09,5,Rain,281
2012-1-28,56,43,30,35,26,13,82,56,29,30.27,30.11,30.00,10,10,10,26,8,36,0.00,1,,286
2012-1-29,49,39,29,16,12,8,53,36,19,30.35,30.26,30.18,10,10,10,20,10,29,0.00,0,,255
2012-1-30,58,46,33,22,19,15,51,37,23,30.41,30.32,30.23,10,10,10,20,7,26,0.00,0,,251
2012-1-31,68,52,36,28,23,21,43,31,18,30.33,30.25,30.18,10,10,10,18,7,25,0.00,0,,240